Nantong, China
Current Conditions -  °F | °C
As of 3:00 AM on Saturday 22 Nov 2014 (Local Time) from ZSSS Reporting Station
Clear Clear  
Wind Chill: 59°   Ceiling: Unl
Heat Index: 59°   Visibility: 4mi
Dew Point: 59°   Wind: 2mph
Humidity: 100%   Direction: 310°NW
Pressure: 30.12"   Gusts: NA
Location:  32.02°N, 120.82°E
Report Text: ZSSS 211900Z 31001MPS 6000 NSC 15/15 Q1020 NOSIG
Loading
Personal Weather Stations






























Interactive Weather Map New forecast layout! Learn more

10-Day Weather Forecast

Advertisements
Track Severe Weather on mobile